createdAt,value
2019-04-25T00:00:49.270Z,0.00
2019-04-25T00:01:49.260Z,0.00
2019-04-25T00:02:49.230Z,0.00
2019-04-25T00:03:49.213Z,0.00
2019-04-25T00:04:49.188Z,0.00
2019-04-25T00:05:49.167Z,0.00
2019-04-25T00:06:49.133Z,0.00
2019-04-25T00:07:49.131Z,0.00
2019-04-25T00:08:49.111Z,0.00
2019-04-25T00:09:49.072Z,0.00
2019-04-25T00:10:49.153Z,0.00
2019-04-25T00:11:49.059Z,0.00
2019-04-25T00:12:49.030Z,0.00
2019-04-25T00:13:49.006Z,0.00
2019-04-25T00:14:48.998Z,0.00
2019-04-25T00:15:48.965Z,0.00
2019-04-25T00:16:49.273Z,0.00
2019-04-25T00:17:48.923Z,0.00
2019-04-25T00:18:48.901Z,0.00
2019-04-25T00:19:48.882Z,0.00
2019-04-25T00:20:48.865Z,0.00
2019-04-25T00:21:48.862Z,0.00
2019-04-25T00:22:49.259Z,0.00
2019-04-25T00:23:49.313Z,0.00
2019-04-25T00:24:49.476Z,0.00
2019-04-25T00:25:49.199Z,0.00
2019-04-25T00:26:48.732Z,0.00
2019-04-25T00:27:48.724Z,0.00
2019-04-25T00:28:48.814Z,0.00
2019-04-25T00:29:48.813Z,0.00
2019-04-25T00:30:48.649Z,0.00
2019-04-25T00:31:49.298Z,0.00
2019-04-25T00:32:51.041Z,0.00
2019-04-25T00:33:49.500Z,0.00
2019-04-25T00:34:48.551Z,0.00
2019-04-25T00:35:48.551Z,0.00
2019-04-25T00:36:48.935Z,0.00
2019-04-25T00:37:48.507Z,0.00
2019-04-25T00:38:49.257Z,0.00
2019-04-25T00:39:49.096Z,0.00
2019-04-25T00:40:48.444Z,0.00
2019-04-25T00:41:49.212Z,0.00
2019-04-25T00:42:48.938Z,0.00
2019-04-25T00:43:48.388Z,0.00
2019-04-25T00:44:49.623Z,0.00
2019-04-25T00:45:49.523Z,0.00
2019-04-25T00:46:50.134Z,0.00
2019-04-25T00:47:48.302Z,0.00
2019-04-25T00:48:48.277Z,0.00
2019-04-25T00:49:48.267Z,0.00
2019-04-25T00:50:48.240Z,0.00
2019-04-25T00:51:48.306Z,0.00
2019-04-25T00:52:48.344Z,0.00
2019-04-25T00:53:48.181Z,0.00
2019-04-25T00:54:48.352Z,0.00
2019-04-25T00:55:48.647Z,0.00
2019-04-25T00:56:49.423Z,0.00
2019-04-25T00:57:49.226Z,0.00
2019-04-25T00:58:48.864Z,0.00
2019-04-25T00:59:48.889Z,0.00
2019-04-25T01:00:48.999Z,0.00
2019-04-25T01:01:48.078Z,0.00
2019-04-25T01:02:47.991Z,0.00
2019-04-25T01:03:47.972Z,0.00
2019-04-25T01:04:47.947Z,0.00
2019-04-25T01:05:47.947Z,0.00
2019-04-25T01:06:47.911Z,0.00
2019-04-25T01:07:47.888Z,0.00
2019-04-25T01:08:47.866Z,0.00
2019-04-25T01:09:47.909Z,0.00
2019-04-25T01:10:48.018Z,0.00
2019-04-25T01:11:48.003Z,0.00
2019-04-25T01:12:48.324Z,0.00
2019-04-25T01:13:48.247Z,0.00
2019-04-25T01:14:48.395Z,0.00
2019-04-25T01:15:48.481Z,0.00
2019-04-25T01:16:48.579Z,0.00
2019-04-25T01:17:47.683Z,0.00
2019-04-25T01:18:47.661Z,0.00
2019-04-25T01:19:47.632Z,0.00
2019-04-25T01:20:47.618Z,0.00
2019-04-25T01:21:49.080Z,0.00
2019-04-25T01:22:47.568Z,0.00
2019-04-25T01:23:48.092Z,0.00
2019-04-25T01:24:47.515Z,0.00
2019-04-25T01:25:47.868Z,0.00
2019-04-25T01:26:47.567Z,0.00
2019-04-25T01:27:47.702Z,0.00
2019-04-25T01:28:47.654Z,0.00
2019-04-25T01:29:47.851Z,0.00
2019-04-25T01:30:47.898Z,0.00
2019-04-25T01:31:47.997Z,0.00
2019-04-25T01:32:48.298Z,0.00
2019-04-25T01:33:48.261Z,0.00
2019-04-25T01:34:47.321Z,0.00
2019-04-25T01:35:47.392Z,0.00
2019-04-25T01:36:47.279Z,0.00
2019-04-25T01:37:47.791Z,0.00
2019-04-25T01:38:47.415Z,0.00
2019-04-25T01:39:47.535Z,0.00
2019-04-25T01:40:48.527Z,0.00
2019-04-25T01:41:47.677Z,0.00
2019-04-25T01:42:47.947Z,0.00
2019-04-25T01:43:48.440Z,0.00
2019-04-25T01:44:47.898Z,0.00
2019-04-25T01:45:48.061Z,0.00
2019-04-25T01:46:48.157Z,0.00
2019-04-25T01:47:48.872Z,0.00
2019-04-25T01:48:48.516Z,0.00
2019-04-25T01:49:47.019Z,0.00
2019-04-25T01:50:46.970Z,0.00
2019-04-25T01:51:46.954Z,0.00
2019-04-25T01:52:47.109Z,0.00
2019-04-25T01:53:46.929Z,0.00
2019-04-25T01:54:46.902Z,0.00
2019-04-25T01:55:56.171Z,0.00
2019-04-25T01:56:46.870Z,0.00
2019-04-25T01:57:46.851Z,0.00
2019-04-25T01:58:46.825Z,0.00
2019-04-25T01:59:46.799Z,0.00
2019-04-25T02:00:47.318Z,0.00
2019-04-25T02:01:46.763Z,0.00
2019-04-25T02:02:46.736Z,0.00
2019-04-25T02:03:46.717Z,0.00
2019-04-25T02:04:47.231Z,0.00
2019-04-25T02:05:47.617Z,0.00
2019-04-25T02:06:46.658Z,0.00
2019-04-25T02:07:47.372Z,0.00
2019-04-25T02:08:46.616Z,0.00
2019-04-25T02:09:47.537Z,0.00
2019-04-25T02:10:47.106Z,0.00
2019-04-25T02:11:46.557Z,0.00
2019-04-25T02:12:46.537Z,0.00
2019-04-25T02:13:46.511Z,0.00
2019-04-25T02:14:46.487Z,0.00
2019-04-25T02:15:46.469Z,0.00
2019-04-25T02:16:46.445Z,0.00
2019-04-25T02:17:46.426Z,0.00
2019-04-25T02:18:46.386Z,0.00
2019-04-25T02:19:46.387Z,0.00
2019-04-25T02:20:46.361Z,0.00
2019-04-25T02:21:46.348Z,0.00
2019-04-25T02:22:46.320Z,0.00
2019-04-25T02:23:46.300Z,0.00
2019-04-25T02:24:46.276Z,0.00
2019-04-25T02:25:46.261Z,0.00
2019-04-25T02:26:46.240Z,0.00
2019-04-25T02:27:46.218Z,0.00
2019-04-25T02:28:46.179Z,0.00
2019-04-25T02:29:46.157Z,0.00
2019-04-25T02:30:46.206Z,0.00
2019-04-25T02:31:46.143Z,0.00
2019-04-25T02:32:46.124Z,0.00
2019-04-25T02:33:46.096Z,0.00
2019-04-25T02:34:46.053Z,0.00
2019-04-25T02:35:46.837Z,0.00
2019-04-25T02:36:47.072Z,0.00
2019-04-25T02:37:46.012Z,0.00
2019-04-25T02:38:45.995Z,0.00
2019-04-25T02:39:45.944Z,0.00
2019-04-25T02:40:45.980Z,0.00
2019-04-25T02:41:45.927Z,0.00
2019-04-25T02:42:45.901Z,0.00
2019-04-25T02:43:45.885Z,0.00
2019-04-25T02:44:45.863Z,0.00
2019-04-25T02:45:45.841Z,0.00
2019-04-25T02:46:45.803Z,0.00
2019-04-25T02:47:46.233Z,0.00
2019-04-25T02:48:45.785Z,0.00
2019-04-25T02:49:45.759Z,0.00
2019-04-25T02:50:46.299Z,0.00
2019-04-25T02:51:45.723Z,0.00
2019-04-25T02:52:45.694Z,0.00
2019-04-25T02:53:45.678Z,0.00
2019-04-25T02:54:45.634Z,0.00
2019-04-25T02:55:45.640Z,0.00
2019-04-25T02:56:46.701Z,0.00
2019-04-25T02:57:45.592Z,0.00
2019-04-25T02:58:45.569Z,0.00
2019-04-25T02:59:45.549Z,0.00
2019-04-25T03:00:57.097Z,0.00
2019-04-25T03:01:45.521Z,0.00
2019-04-25T03:02:45.491Z,0.00
2019-04-25T03:03:45.475Z,0.00
2019-04-25T03:04:45.449Z,0.00
2019-04-25T03:05:47.737Z,0.00
2019-04-25T03:06:45.658Z,0.00
2019-04-25T03:07:45.384Z,0.00
2019-04-25T03:08:45.374Z,0.00
2019-04-25T03:09:45.690Z,0.00
2019-04-25T03:10:45.322Z,0.00
2019-04-25T03:11:47.558Z,0.00
2019-04-25T03:12:45.274Z,0.00
2019-04-25T03:13:45.258Z,0.00
2019-04-25T03:14:45.219Z,0.00
2019-04-25T03:15:45.218Z,0.00
2019-04-25T03:16:45.182Z,0.00
2019-04-25T03:17:45.166Z,0.00
2019-04-25T03:18:45.152Z,0.00
2019-04-25T03:19:45.134Z,0.00
2019-04-25T03:20:45.321Z,0.00
2019-04-25T03:21:45.390Z,0.00
2019-04-25T03:22:45.056Z,0.00
2019-04-25T03:23:46.398Z,0.00
2019-04-25T03:24:45.894Z,0.00
2019-04-25T03:25:45.243Z,0.00
2019-04-25T03:26:44.988Z,0.00
2019-04-25T03:27:45.493Z,0.00
2019-04-25T03:28:44.944Z,0.00
2019-04-25T03:29:45.709Z,0.00
2019-04-25T03:30:45.188Z,0.00
2019-04-25T03:31:45.246Z,0.00
2019-04-25T03:32:45.271Z,0.00
2019-04-25T03:33:45.974Z,0.00
2019-04-25T03:34:44.825Z,0.00
2019-04-25T03:35:44.800Z,0.00
2019-04-25T03:36:44.784Z,0.00
2019-04-25T03:37:44.759Z,0.00
2019-04-25T03:38:44.713Z,0.00
2019-04-25T03:39:44.714Z,0.00
2019-04-25T03:40:44.674Z,0.00
2019-04-25T03:41:45.524Z,0.00
2019-04-25T03:42:44.653Z,0.00
2019-04-25T03:43:44.615Z,0.00
2019-04-25T03:44:44.607Z,0.00
2019-04-25T03:45:45.273Z,0.00
2019-04-25T03:46:44.570Z,0.00
2019-04-25T03:47:44.546Z,0.00
2019-04-25T03:48:44.524Z,0.00
2019-04-25T03:49:44.509Z,0.00
2019-04-25T03:50:44.484Z,0.00
2019-04-25T03:51:44.662Z,0.00
2019-04-25T03:52:44.473Z,0.00
2019-04-25T03:53:44.403Z,0.00
2019-04-25T03:54:44.401Z,0.00
2019-04-25T03:55:44.464Z,0.00
2019-04-25T03:56:53.321Z,0.00
2019-04-25T03:57:44.476Z,0.00
2019-04-25T03:58:44.318Z,0.00
2019-04-25T03:59:44.297Z,0.00
2019-04-25T04:00:44.800Z,0.00
2019-04-25T04:01:44.235Z,0.00
2019-04-25T04:02:44.478Z,0.00
2019-04-25T04:03:44.214Z,0.00
2019-04-25T04:04:44.189Z,0.00
2019-04-25T04:05:44.267Z,0.00
2019-04-25T04:06:44.211Z,0.00
2019-04-25T04:07:44.128Z,0.00
2019-04-25T04:08:44.428Z,0.00
2019-04-25T04:09:44.066Z,0.00
2019-04-25T04:10:44.065Z,0.00
2019-04-25T04:11:44.044Z,0.00
2019-04-25T04:12:44.395Z,0.00
2019-04-25T04:13:44.194Z,0.00
2019-04-25T04:14:43.995Z,0.00
2019-04-25T04:15:43.957Z,0.00
2019-04-25T04:16:44.410Z,0.00
2019-04-25T04:17:43.920Z,0.00
2019-04-25T04:18:44.259Z,0.00
2019-04-25T04:19:45.241Z,0.00
2019-04-25T04:20:43.843Z,0.00
2019-04-25T04:21:43.819Z,0.00
2019-04-25T04:22:43.905Z,0.00
2019-04-25T04:23:43.796Z,0.00
2019-04-25T04:24:44.093Z,0.00
2019-04-25T04:25:43.751Z,0.00
2019-04-25T04:26:43.713Z,0.00
2019-04-25T04:27:43.863Z,0.00
2019-04-25T04:28:43.692Z,0.00
2019-04-25T04:29:43.667Z,0.00
2019-04-25T04:30:45.432Z,0.00
2019-04-25T04:31:43.627Z,0.00
2019-04-25T04:32:44.134Z,0.00
2019-04-25T04:33:43.587Z,0.00
2019-04-25T04:34:45.488Z,0.00
2019-04-25T04:35:44.153Z,0.00
2019-04-25T04:36:43.776Z,0.00
2019-04-25T04:37:43.489Z,0.00
2019-04-25T04:38:44.250Z,0.00
2019-04-25T04:39:43.789Z,0.00
2019-04-25T04:40:44.150Z,0.00
2019-04-25T04:41:43.733Z,0.00
2019-04-25T04:42:43.578Z,0.00
2019-04-25T04:43:44.156Z,0.00
2019-04-25T04:44:43.712Z,0.00
2019-04-25T04:45:45.590Z,0.00
2019-04-25T04:46:43.963Z,0.00
2019-04-25T04:47:43.441Z,0.00
2019-04-25T04:48:43.819Z,0.00
2019-04-25T04:49:43.921Z,0.00
2019-04-25T04:50:43.508Z,0.00
2019-04-25T04:51:44.392Z,0.00
2019-04-25T04:52:43.999Z,0.00
2019-04-25T04:53:43.845Z,0.00
2019-04-25T04:54:43.954Z,0.00
2019-04-25T04:55:43.247Z,0.00
2019-04-25T04:56:43.803Z,0.00
2019-04-25T04:57:44.716Z,0.00
2019-04-25T04:58:43.276Z,0.00
2019-04-25T04:59:43.887Z,0.00
2019-04-25T05:00:43.820Z,0.00
2019-04-25T05:01:43.286Z,0.00
2019-04-25T05:02:43.432Z,0.00
2019-04-25T05:03:44.079Z,0.00
2019-04-25T05:04:43.596Z,0.00
2019-04-25T05:05:44.029Z,0.00
2019-04-25T05:06:43.709Z,0.00
2019-04-25T05:07:43.906Z,0.00
2019-04-25T05:08:43.543Z,0.00
2019-04-25T05:09:43.552Z,0.00
2019-04-25T05:10:43.344Z,0.00
2019-04-25T05:11:44.174Z,0.00
2019-04-25T05:12:43.767Z,0.00
2019-04-25T05:13:44.086Z,0.00
2019-04-25T05:14:43.635Z,0.00
2019-04-25T05:15:42.987Z,0.00
2019-04-25T05:16:43.263Z,0.00
2019-04-25T05:17:44.018Z,0.00
2019-04-25T05:18:43.731Z,0.00
2019-04-25T05:19:43.417Z,0.00
2019-04-25T05:20:43.984Z,0.00
2019-04-25T05:21:43.568Z,0.00
2019-04-25T05:22:42.560Z,0.00
2019-04-25T05:23:44.026Z,0.00
2019-04-25T05:24:43.838Z,0.00
2019-04-25T05:25:44.094Z,0.00
2019-04-25T05:26:44.024Z,0.00
2019-04-25T05:27:59.078Z,0.00
2019-04-25T05:28:42.437Z,0.00
2019-04-25T05:29:43.922Z,0.00
2019-04-25T05:30:43.607Z,0.00
2019-04-25T05:31:43.913Z,0.00
2019-04-25T05:32:44.175Z,0.00
2019-04-25T05:33:43.597Z,0.00
2019-04-25T05:34:42.309Z,0.00
2019-04-25T05:35:42.282Z,0.00
2019-04-25T05:36:43.863Z,0.00
2019-04-25T05:37:43.602Z,0.00
2019-04-25T05:39:43.478Z,0.00
2019-04-25T05:40:43.774Z,0.00
2019-04-25T05:41:43.977Z,0.00
2019-04-25T05:42:42.146Z,0.00
2019-04-25T05:43:43.529Z,0.00
2019-04-25T05:44:42.098Z,0.00
2019-04-25T05:45:42.081Z,0.00
2019-04-25T05:46:42.057Z,0.00
2019-04-25T05:47:42.016Z,0.00
2019-04-25T05:48:43.776Z,0.00
2019-04-25T05:49:41.983Z,0.00
2019-04-25T05:50:43.616Z,0.00
2019-04-25T05:51:43.754Z,0.00
2019-04-25T05:52:41.909Z,0.00
2019-04-25T05:53:43.327Z,0.00
2019-04-25T05:54:41.885Z,0.00
2019-04-25T05:55:41.869Z,0.00
2019-04-25T05:56:43.751Z,0.00
2019-04-25T05:57:47.674Z,0.00
2019-04-25T05:58:41.806Z,0.00
2019-04-25T05:59:41.769Z,0.00
2019-04-25T06:00:41.767Z,0.00
2019-04-25T06:01:43.376Z,0.00
2019-04-25T06:02:41.716Z,0.00
2019-04-25T06:03:41.699Z,0.00
2019-04-25T06:04:43.481Z,0.00
2019-04-25T06:05:43.241Z,0.00
2019-04-25T06:06:41.614Z,0.00
2019-04-25T06:07:43.162Z,0.00
2019-04-25T06:08:41.577Z,0.00
2019-04-25T06:09:41.551Z,0.00
2019-04-25T06:10:41.556Z,0.00
2019-04-25T06:11:41.546Z,0.00
2019-04-25T06:12:41.562Z,0.00
2019-04-25T06:13:43.287Z,0.00
2019-04-25T06:14:43.292Z,0.00
2019-04-25T06:15:43.361Z,0.00
2019-04-25T06:16:41.421Z,0.00
2019-04-25T06:17:41.397Z,0.00
2019-04-25T06:18:41.384Z,0.00
2019-04-25T06:19:41.363Z,0.00
2019-04-25T06:20:41.336Z,0.00
2019-04-25T06:21:41.319Z,0.00
2019-04-25T06:22:41.295Z,0.00
2019-04-25T06:23:41.270Z,0.00
2019-04-25T06:24:41.255Z,0.00
2019-04-25T06:25:41.225Z,0.00
2019-04-25T06:26:41.192Z,0.00
2019-04-25T06:27:41.168Z,0.00
2019-04-25T06:28:51.999Z,0.00
2019-04-25T06:29:41.126Z,0.00
2019-04-25T06:30:41.123Z,0.00
2019-04-25T06:31:43.791Z,0.00
2019-04-25T06:32:41.080Z,0.00
2019-04-25T06:33:41.154Z,0.00
2019-04-25T06:34:41.038Z,0.00
2019-04-25T06:35:41.016Z,0.00
2019-04-25T06:36:40.995Z,0.00
2019-04-25T06:37:41.379Z,0.00
2019-04-25T06:38:40.952Z,0.00
2019-04-25T06:39:40.926Z,0.00
2019-04-25T06:40:40.906Z,0.00
2019-04-25T06:41:40.882Z,0.00
2019-04-25T06:42:43.430Z,0.00
2019-04-25T06:43:40.848Z,0.00
2019-04-25T06:44:40.819Z,0.00
2019-04-25T06:45:40.808Z,0.00
2019-04-25T06:46:40.773Z,0.00
2019-04-25T06:47:40.755Z,0.00
2019-04-25T06:48:40.738Z,0.00
2019-04-25T06:49:40.712Z,0.00
2019-04-25T06:50:41.602Z,0.00
2019-04-25T06:51:41.211Z,0.00
2019-04-25T06:52:41.150Z,0.00
2019-04-25T06:53:41.143Z,0.00
2019-04-25T06:54:40.606Z,0.00
2019-04-25T06:55:40.586Z,0.00
2019-04-25T06:56:40.541Z,0.00
2019-04-25T06:57:40.531Z,0.00
2019-04-25T06:58:40.959Z,0.00
2019-04-25T06:59:41.552Z,0.00
2019-04-25T07:00:42.565Z,0.00
2019-04-25T07:01:40.463Z,0.00
2019-04-25T07:02:40.420Z,0.00
2019-04-25T07:03:40.397Z,0.00
2019-04-25T07:04:40.393Z,0.00
2019-04-25T07:05:40.875Z,0.00
2019-04-25T07:06:40.347Z,0.00
2019-04-25T07:07:40.325Z,0.00
2019-04-25T07:08:40.314Z,0.00
2019-04-25T07:10:40.243Z,0.00
2019-04-25T07:11:40.225Z,0.00
2019-04-25T07:12:40.224Z,0.00
2019-04-25T07:13:40.183Z,0.00
2019-04-25T07:14:40.178Z,0.00
2019-04-25T07:15:40.159Z,0.00
2019-04-25T07:16:40.135Z,0.00
2019-04-25T07:17:40.120Z,0.00
2019-04-25T07:18:40.103Z,0.00
2019-04-25T07:19:40.077Z,0.00
2019-04-25T07:20:40.057Z,0.00
2019-04-25T07:21:40.031Z,0.00
2019-04-25T07:22:40.009Z,0.00
2019-04-25T07:23:40.423Z,0.00
2019-04-25T07:24:39.967Z,0.00
2019-04-25T07:25:39.948Z,0.00
2019-04-25T07:26:39.950Z,0.00
2019-04-25T07:27:39.907Z,0.00
2019-04-25T07:28:39.903Z,0.00
2019-04-25T07:29:39.874Z,0.00
2019-04-25T07:30:50.213Z,0.00
2019-04-25T07:31:39.806Z,0.00
2019-04-25T07:32:40.337Z,0.00
2019-04-25T07:33:39.763Z,0.00
2019-04-25T07:34:39.758Z,0.00
2019-04-25T07:35:39.733Z,0.00
2019-04-25T07:36:39.716Z,0.00
2019-04-25T07:37:41.772Z,0.00
2019-04-25T07:38:39.670Z,0.00
2019-04-25T07:39:39.662Z,0.00
2019-04-25T07:40:39.608Z,0.00
2019-04-25T07:41:39.610Z,0.00
2019-04-25T07:42:39.587Z,0.00
2019-04-25T07:43:39.571Z,0.00
2019-04-25T07:44:49.979Z,0.00
2019-04-25T07:45:39.524Z,0.00
2019-04-25T07:46:40.128Z,0.00
2019-04-25T07:47:39.490Z,0.00
2019-04-25T07:48:39.463Z,0.00
2019-04-25T07:49:39.440Z,0.00
2019-04-25T07:50:39.420Z,0.00
2019-04-25T07:51:39.395Z,0.00
2019-04-25T07:52:39.378Z,0.00
2019-04-25T07:53:39.351Z,0.00
2019-04-25T07:54:39.306Z,0.00
2019-04-25T07:55:39.292Z,0.00
2019-04-25T07:56:39.285Z,0.00
2019-04-25T07:57:39.269Z,0.00
2019-04-25T07:58:49.589Z,0.00
2019-04-25T07:59:39.225Z,0.00
2019-04-25T08:00:39.184Z,0.00
2019-04-25T08:01:39.180Z,0.00
2019-04-25T08:02:39.569Z,0.00
2019-04-25T08:03:39.130Z,0.00
2019-04-25T08:04:39.108Z,0.00
2019-04-25T08:05:39.091Z,0.00
2019-04-25T08:06:39.607Z,0.00
2019-04-25T08:07:39.052Z,0.00
2019-04-25T08:08:39.010Z,0.00
2019-04-25T08:09:38.986Z,0.00
2019-04-25T08:10:38.976Z,0.00
2019-04-25T08:11:38.961Z,0.00
2019-04-25T08:12:39.410Z,0.00
2019-04-25T08:13:39.864Z,0.00
2019-04-25T08:14:38.881Z,0.00
2019-04-25T08:15:38.853Z,0.00
2019-04-25T08:16:39.394Z,0.00
2019-04-25T08:17:40.000Z,0.00
2019-04-25T08:18:39.010Z,0.00
2019-04-25T08:19:39.334Z,0.00
2019-04-25T08:20:40.140Z,0.00
2019-04-25T08:21:38.752Z,0.00
2019-04-25T08:22:52.022Z,0.00
2019-04-25T08:23:38.949Z,0.00
2019-04-25T08:24:39.117Z,0.00
2019-04-25T08:25:39.647Z,0.00
2019-04-25T08:26:39.402Z,0.00
2019-04-25T08:27:38.920Z,0.00
2019-04-25T08:28:50.322Z,0.00
2019-04-25T08:29:39.687Z,0.00
2019-04-25T08:30:39.483Z,0.00
2019-04-25T08:31:39.368Z,0.00
2019-04-25T08:32:38.507Z,0.00
2019-04-25T08:33:39.094Z,0.00
2019-04-25T08:34:39.370Z,0.00
2019-04-25T08:35:38.446Z,0.00
2019-04-25T08:36:38.895Z,0.00
2019-04-25T08:37:38.377Z,0.00
2019-04-25T08:38:38.371Z,0.00
2019-04-25T08:39:38.878Z,0.00
2019-04-25T08:40:39.003Z,0.00
2019-04-25T08:41:38.510Z,0.00
2019-04-25T08:42:38.292Z,0.00
2019-04-25T08:43:39.407Z,0.00
2019-04-25T08:44:39.169Z,0.00
2019-04-25T08:45:38.463Z,0.00
2019-04-25T08:46:39.357Z,0.00
2019-04-25T08:47:38.180Z,0.00
2019-04-25T08:48:38.157Z,0.00
2019-04-25T08:49:38.230Z,0.00
2019-04-25T08:50:40.141Z,0.00
2019-04-25T08:51:38.100Z,0.00
2019-04-25T08:52:38.072Z,0.00
2019-04-25T08:53:38.706Z,0.00
2019-04-25T08:54:41.135Z,0.00
2019-04-25T08:55:38.301Z,0.00
2019-04-25T08:56:37.992Z,0.00
2019-04-25T08:57:37.984Z,0.00
2019-04-25T08:58:37.925Z,0.00
2019-04-25T08:59:42.535Z,0.00
2019-04-25T09:00:38.298Z,0.00
2019-04-25T09:01:39.551Z,0.00
2019-04-25T09:02:38.890Z,4.00
2019-04-25T09:03:38.033Z,0.00
2019-04-25T09:04:38.057Z,4.00
2019-04-25T09:05:38.854Z,0.00
2019-04-25T09:06:38.616Z,4.00
2019-04-25T09:07:39.000Z,4.00
2019-04-25T09:08:38.448Z,8.00
2019-04-25T09:09:37.947Z,8.00
2019-04-25T09:10:38.956Z,12.00
2019-04-25T09:11:39.207Z,16.00
2019-04-25T09:12:37.805Z,20.00
2019-04-25T09:13:38.641Z,20.00
2019-04-25T09:14:39.023Z,28.00
2019-04-25T09:15:38.072Z,32.00
2019-04-25T09:16:37.902Z,40.00
2019-04-25T09:17:38.060Z,44.00
2019-04-25T09:18:38.262Z,56.00
2019-04-25T09:19:38.429Z,68.00
2019-04-25T09:20:40.266Z,76.00
2019-04-25T09:21:37.826Z,88.00
2019-04-25T09:22:38.584Z,96.00
2019-04-25T09:23:37.957Z,108.00
2019-04-25T09:24:38.105Z,124.00
2019-04-25T09:25:38.638Z,136.00
2019-04-25T09:26:38.386Z,144.00
2019-04-25T09:27:39.727Z,160.00
2019-04-25T09:28:38.947Z,176.00
2019-04-25T09:29:37.831Z,208.00
2019-04-25T09:30:38.298Z,228.00
2019-04-25T09:31:38.788Z,252.00
2019-04-25T09:32:37.763Z,276.00
2019-04-25T09:33:37.222Z,300.00
2019-04-25T09:34:38.113Z,340.00
2019-04-25T09:35:37.724Z,388.00
2019-04-25T09:36:37.736Z,432.00
2019-04-25T09:37:37.108Z,484.00
2019-04-25T09:38:37.099Z,524.00
2019-04-25T09:39:37.083Z,564.00
2019-04-25T09:40:37.442Z,604.00
2019-04-25T09:41:37.886Z,644.00
2019-04-25T09:42:37.066Z,688.00
2019-04-25T09:43:37.301Z,728.00
2019-04-25T09:44:38.206Z,768.00
2019-04-25T09:45:37.630Z,816.00
2019-04-25T09:46:37.328Z,852.00
2019-04-25T09:47:37.133Z,896.00
2019-04-25T09:48:37.531Z,944.00
2019-04-25T09:49:37.897Z,992.00
2019-04-25T09:50:38.237Z,1024.00
2019-04-25T09:51:37.615Z,1060.00
2019-04-25T09:52:37.718Z,1112.00
2019-04-25T09:53:42.404Z,1180.00
2019-04-25T09:54:37.955Z,1276.00
2019-04-25T09:55:37.550Z,1336.00
2019-04-25T09:56:36.727Z,1368.00
2019-04-25T09:57:37.339Z,1380.00
2019-04-25T09:58:36.665Z,1384.00
2019-04-25T09:59:37.540Z,1396.00
2019-04-25T10:00:36.637Z,1416.00
2019-04-25T10:01:36.636Z,1460.00
2019-04-25T10:02:36.899Z,1508.00
2019-04-25T10:03:36.713Z,1592.00
2019-04-25T10:04:36.934Z,1664.00
2019-04-25T10:05:37.095Z,1732.00
2019-04-25T10:06:37.288Z,1852.00
2019-04-25T10:08:37.048Z,1968.00
2019-04-25T10:09:36.451Z,2076.00
2019-04-25T10:10:36.417Z,2228.00
2019-04-25T10:11:36.389Z,2440.00
2019-04-25T10:12:37.264Z,2644.00
2019-04-25T10:13:36.353Z,2800.00
2019-04-25T10:14:36.772Z,2816.00
2019-04-25T10:15:37.474Z,2752.00
2019-04-25T10:16:36.305Z,2780.00
2019-04-25T10:17:37.581Z,2872.00
2019-04-25T10:18:37.038Z,2900.00
2019-04-25T10:19:37.612Z,2884.00
2019-04-25T10:20:37.590Z,2880.00
2019-04-25T10:21:37.952Z,2988.00
2019-04-25T10:22:36.178Z,3180.00
2019-04-25T10:23:36.160Z,3300.00
2019-04-25T10:24:36.141Z,3408.00
2019-04-25T10:26:36.099Z,3868.00
2019-04-25T10:27:36.082Z,3884.00
2019-04-25T10:28:36.049Z,3856.00
2019-04-25T10:29:44.895Z,3896.00
2019-04-25T10:30:36.010Z,4032.00
2019-04-25T10:31:35.995Z,4232.00
2019-04-25T10:32:35.969Z,4488.00
2019-04-25T10:33:35.952Z,4808.00
2019-04-25T10:34:36.459Z,5084.00
2019-04-25T10:35:46.592Z,5200.00
2019-04-25T10:36:38.738Z,5300.00
2019-04-25T10:37:35.852Z,5428.00
2019-04-25T10:38:35.917Z,5556.00
2019-04-25T10:39:35.833Z,5812.00
2019-04-25T10:40:36.309Z,6160.00
2019-04-25T10:41:36.321Z,6300.00
2019-04-25T10:42:35.761Z,6528.00
2019-04-25T10:43:36.682Z,7044.00
2019-04-25T10:44:35.728Z,6612.00
2019-04-25T10:45:35.707Z,6600.00
2019-04-25T10:46:35.664Z,6864.00
2019-04-25T10:47:35.666Z,7392.00
2019-04-25T10:48:35.628Z,8492.00
2019-04-25T10:49:35.627Z,9048.00
2019-04-25T10:50:35.607Z,7652.00
2019-04-25T10:51:35.582Z,7704.00
2019-04-25T10:52:35.567Z,9392.00
2019-04-25T10:53:35.547Z,10328.00
2019-04-25T10:54:35.561Z,10568.00
2019-04-25T10:55:35.491Z,10204.00
2019-04-25T10:56:35.478Z,10808.00
2019-04-25T10:57:35.454Z,9952.00
2019-04-25T10:58:35.461Z,9832.00
2019-04-25T10:59:36.578Z,8264.00
2019-04-25T11:00:36.348Z,9688.00
2019-04-25T11:01:35.940Z,11200.00
2019-04-25T11:02:35.799Z,11316.00
2019-04-25T11:03:35.962Z,11704.00
2019-04-25T11:04:35.350Z,11980.00
2019-04-25T11:05:35.854Z,11396.00
2019-04-25T11:06:35.309Z,10160.00
2019-04-25T11:07:35.290Z,9644.00
2019-04-25T11:08:35.272Z,11584.00
2019-04-25T11:09:36.101Z,11676.00
2019-04-25T11:10:36.787Z,10900.00
2019-04-25T11:11:35.755Z,10372.00
2019-04-25T11:12:36.141Z,10932.00
2019-04-25T11:13:35.722Z,10868.00
2019-04-25T11:14:36.093Z,11700.00
2019-04-25T11:15:35.682Z,11584.00
2019-04-25T11:16:35.137Z,11108.00
2019-04-25T11:17:35.121Z,11472.00
2019-04-25T11:18:35.654Z,12352.00
2019-04-25T11:20:35.596Z,11716.00
2019-04-25T11:21:35.992Z,11900.00
2019-04-25T11:22:35.563Z,11792.00
2019-04-25T11:23:35.021Z,11964.00
2019-04-25T11:24:35.943Z,12424.00
2019-04-25T11:25:34.971Z,9364.00
2019-04-25T11:26:34.971Z,11888.00
2019-04-25T11:27:34.948Z,12108.00
2019-04-25T11:28:34.934Z,12912.00
2019-04-25T11:29:34.916Z,12964.00
2019-04-25T11:30:34.880Z,13276.00
2019-04-25T11:31:34.893Z,13448.00
2019-04-25T11:32:35.914Z,13196.00
2019-04-25T11:33:35.382Z,13260.00
2019-04-25T11:35:35.771Z,13564.00
2019-04-25T11:36:35.756Z,13476.00
2019-04-25T11:37:35.328Z,13996.00
2019-04-25T11:38:35.319Z,13952.00
2019-04-25T11:39:34.767Z,13492.00
2019-04-25T11:40:35.884Z,13748.00
2019-04-25T11:41:34.714Z,11808.00
2019-04-25T11:42:35.241Z,9764.00
2019-04-25T11:43:35.659Z,11104.00
2019-04-25T11:44:35.201Z,13816.00
2019-04-25T11:45:35.180Z,10960.00
2019-04-25T11:46:35.187Z,9808.00
2019-04-25T11:48:35.752Z,13396.00
2019-04-25T11:49:35.136Z,10916.00
2019-04-25T11:50:36.926Z,12868.00
2019-04-25T11:51:34.577Z,14000.00
2019-04-25T11:52:34.557Z,13916.00
2019-04-25T11:53:35.478Z,14772.00
2019-04-25T11:54:35.055Z,14364.00
2019-04-25T11:55:35.653Z,13992.00
2019-04-25T11:56:35.639Z,14868.00
2019-04-25T11:57:34.923Z,13800.00
2019-04-25T11:58:34.442Z,14564.00
2019-04-25T11:59:34.452Z,14760.00
2019-04-25T12:00:34.418Z,14828.00
2019-04-25T12:01:34.421Z,14996.00
2019-04-25T12:02:34.478Z,15280.00
2019-04-25T12:03:34.385Z,15224.00
2019-04-25T12:04:35.099Z,15324.00
2019-04-25T12:05:34.885Z,15504.00
2019-04-25T12:06:34.839Z,15320.00
2019-04-25T12:07:34.834Z,15012.00
2019-04-25T12:08:35.048Z,15324.00
2019-04-25T12:09:34.292Z,15416.00
2019-04-25T12:10:34.814Z,15492.00
2019-04-25T12:11:34.703Z,15588.00
2019-04-25T12:13:34.973Z,15108.00
2019-04-25T12:15:34.747Z,15872.00
2019-04-25T12:16:35.035Z,15936.00
2019-04-25T12:18:35.492Z,15744.00
2019-04-25T12:19:37.855Z,15872.00
2019-04-25T12:20:34.679Z,15968.00
2019-04-25T12:21:34.555Z,16160.00
2019-04-25T12:22:34.738Z,16256.00
2019-04-25T12:23:34.519Z,16288.00
2019-04-25T12:24:34.709Z,16288.00
2019-04-25T12:25:35.199Z,16192.00
2019-04-25T12:26:34.054Z,16544.00
2019-04-25T12:27:34.039Z,16416.00
2019-04-25T12:28:34.026Z,16416.00
2019-04-25T12:29:33.994Z,16672.00
2019-04-25T12:30:38.323Z,16608.00
2019-04-25T12:31:34.248Z,16736.00
2019-04-25T12:32:35.313Z,16736.00
2019-04-25T12:33:33.950Z,16288.00
2019-04-25T12:34:33.937Z,16672.00
2019-04-25T12:35:33.903Z,16992.00
2019-04-25T12:36:34.142Z,16928.00
2019-04-25T12:37:33.897Z,16960.00
2019-04-25T12:38:35.424Z,17056.00
2019-04-25T12:39:34.292Z,17184.00
2019-04-25T12:40:34.321Z,17376.00
2019-04-25T12:41:33.838Z,17248.00
2019-04-25T12:42:34.345Z,16960.00
2019-04-25T12:43:33.961Z,16864.00
2019-04-25T12:44:33.775Z,16864.00
2019-04-25T12:45:34.384Z,16896.00
2019-04-25T12:47:34.693Z,16416.00
2019-04-25T12:50:34.248Z,17120.00
2019-04-25T12:51:34.227Z,16704.00
2019-04-25T12:52:33.677Z,15272.00
2019-04-25T12:53:35.102Z,17536.00
2019-04-25T12:55:34.200Z,17664.00
2019-04-25T12:56:34.141Z,17888.00
2019-04-25T12:57:33.608Z,17824.00
2019-04-25T12:58:33.593Z,17728.00
2019-04-25T12:59:33.576Z,17664.00
2019-04-25T13:00:34.216Z,17664.00
2019-04-25T13:01:33.552Z,18016.00
2019-04-25T13:02:34.540Z,18176.00
2019-04-25T13:03:33.671Z,18560.00
2019-04-25T13:04:34.979Z,17760.00
2019-04-25T13:05:34.231Z,17728.00
2019-04-25T13:06:33.869Z,17952.00
2019-04-25T13:07:33.470Z,18176.00